createdAt,value
2022-08-23T00:00:11.998Z,7.90
2022-08-23T00:02:43.467Z,9.88
2022-08-23T00:05:12.401Z,9.77
2022-08-23T00:07:42.169Z,18.48
2022-08-23T00:10:12.448Z,11.90
2022-08-23T00:12:42.544Z,8.15
2022-08-23T00:15:13.173Z,8.70
2022-08-23T00:17:42.336Z,11.40
2022-08-23T00:20:14.635Z,10.18
2022-08-23T00:22:44.060Z,10.70
2022-08-23T00:25:14.299Z,9.63
2022-08-23T00:27:44.093Z,9.57
2022-08-23T00:30:13.849Z,8.70
2022-08-23T00:32:43.547Z,9.10
2022-08-23T00:35:19.184Z,7.80
2022-08-23T00:38:32.795Z,7.43
2022-08-23T00:40:46.846Z,7.38
2022-08-23T00:43:36.696Z,7.72
2022-08-23T00:46:29.290Z,9.85
2022-08-23T00:48:58.602Z,12.98
2022-08-23T00:51:31.805Z,12.15
2022-08-23T00:54:12.385Z,10.50
2022-08-23T00:56:40.893Z,11.98
2022-08-23T00:59:10.749Z,10.32
2022-08-23T01:01:39.314Z,12.00
2022-08-23T01:04:08.227Z,11.15
2022-08-23T01:06:44.151Z,9.52
2022-08-23T01:09:16.385Z,9.98
2022-08-23T01:11:51.101Z,9.70
2022-08-23T01:14:27.939Z,8.82
2022-08-23T01:17:01.552Z,10.05
2022-08-23T01:19:34.135Z,8.45
2022-08-23T01:22:09.246Z,12.18
2022-08-23T01:25:07.165Z,12.13
2022-08-23T01:27:28.888Z,10.88
2022-08-23T01:29:59.949Z,11.55
2022-08-23T01:32:29.851Z,12.43
2022-08-23T01:34:58.252Z,8.40
2022-08-23T01:37:26.619Z,10.55
2022-08-23T01:39:56.568Z,11.07
2022-08-23T01:42:25.172Z,9.88
2022-08-23T01:44:53.333Z,10.30
2022-08-23T01:47:21.564Z,12.13
2022-08-23T01:49:49.993Z,12.02
2022-08-23T01:52:19.694Z,11.50
2022-08-23T01:54:47.999Z,11.05
2022-08-23T01:57:17.529Z,11.48
2022-08-23T01:59:45.961Z,13.23
2022-08-23T02:02:14.978Z,13.07
2022-08-23T02:04:43.520Z,12.65
2022-08-23T02:07:11.895Z,15.27
2022-08-23T02:09:39.664Z,12.10
2022-08-23T02:12:08.754Z,11.73
2022-08-23T02:14:42.043Z,16.30
2022-08-23T02:17:10.726Z,13.93
2022-08-23T02:19:39.648Z,12.90
2022-08-23T02:22:09.240Z,14.70
2022-08-23T02:24:42.588Z,16.40
2022-08-23T02:27:11.215Z,14.43
2022-08-23T02:29:40.636Z,17.42
2022-08-23T02:32:13.052Z,15.05
2022-08-23T02:34:42.224Z,13.73
2022-08-23T02:37:11.914Z,15.70
2022-08-23T02:39:40.882Z,19.38
2022-08-23T02:42:11.831Z,18.15
2022-08-23T02:44:42.096Z,21.17
2022-08-23T02:47:11.963Z,15.52
2022-08-23T02:49:40.484Z,16.25
2022-08-23T02:52:09.581Z,17.90
2022-08-23T02:54:37.963Z,18.63
2022-08-23T02:57:06.733Z,17.45
2022-08-23T02:59:35.699Z,16.65
2022-08-23T03:02:05.384Z,17.98
2022-08-23T03:04:34.108Z,16.73
2022-08-23T03:07:02.456Z,19.17
2022-08-23T03:09:30.749Z,16.35
2022-08-23T03:11:59.152Z,13.75
2022-08-23T03:14:27.997Z,16.92
2022-08-23T03:16:58.324Z,16.17
2022-08-23T03:19:28.102Z,16.40
2022-08-23T03:21:56.496Z,15.23
2022-08-23T03:24:25.077Z,14.05
2022-08-23T03:26:53.542Z,14.23
2022-08-23T03:29:22.055Z,15.27
2022-08-23T03:31:51.620Z,16.35
2022-08-23T03:34:22.483Z,13.75
2022-08-23T03:36:51.974Z,18.02
2022-08-23T03:39:20.362Z,19.77
2022-08-23T03:41:48.827Z,17.13
2022-08-23T03:44:17.356Z,16.75
2022-08-23T03:46:48.426Z,16.75
2022-08-23T03:49:16.724Z,13.70
2022-08-23T03:51:45.040Z,16.02
2022-08-23T03:54:14.596Z,18.88
2022-08-23T03:56:52.195Z,13.93
2022-08-23T03:59:20.689Z,17.25
2022-08-23T04:01:49.516Z,19.75
2022-08-23T04:04:18.336Z,14.68
2022-08-23T04:06:47.064Z,16.90
2022-08-23T04:09:17.892Z,16.52
2022-08-23T04:11:46.736Z,18.20
2022-08-23T04:14:15.174Z,16.23
2022-08-23T04:16:44.425Z,18.77
2022-08-23T04:19:14.543Z,15.95
2022-08-23T04:21:45.148Z,18.48
2022-08-23T04:24:14.567Z,14.02
2022-08-23T04:26:44.422Z,15.45
2022-08-23T04:29:31.436Z,15.27
2022-08-23T04:32:05.534Z,15.85
2022-08-23T04:34:36.496Z,15.32
2022-08-23T04:37:09.180Z,13.93
2022-08-23T04:39:58.893Z,15.70
2022-08-23T04:42:27.905Z,14.35
2022-08-23T04:44:57.613Z,18.00
2022-08-23T04:47:25.989Z,15.68
2022-08-23T04:49:54.445Z,15.05
2022-08-23T04:52:23.001Z,14.95
2022-08-23T04:54:51.369Z,19.30
2022-08-23T04:57:19.769Z,16.35
2022-08-23T04:59:49.280Z,14.93
2022-08-23T05:02:17.711Z,17.20
2022-08-23T05:04:47.024Z,16.77
2022-08-23T05:07:15.781Z,13.80
2022-08-23T05:09:44.182Z,17.27
2022-08-23T05:12:12.467Z,14.77
2022-08-23T05:14:40.761Z,18.10
2022-08-23T05:17:13.836Z,19.38
2022-08-23T05:19:44.209Z,13.75
2022-08-23T05:22:15.594Z,19.98
2022-08-23T05:24:44.311Z,17.15
2022-08-23T05:27:13.734Z,22.95
2022-08-23T05:29:42.186Z,17.88
2022-08-23T05:32:10.823Z,19.95
2022-08-23T05:34:40.584Z,15.30
2022-08-23T05:37:08.953Z,20.08
2022-08-23T05:39:37.613Z,19.38
2022-08-23T05:42:06.495Z,16.90
2022-08-23T05:44:36.557Z,19.27
2022-08-23T05:47:10.189Z,15.90
2022-08-23T05:49:40.743Z,13.98
2022-08-23T05:52:11.694Z,17.75
2022-08-23T05:54:40.521Z,15.43
2022-08-23T05:57:10.525Z,17.65
2022-08-23T05:59:39.767Z,18.42
2022-08-23T06:02:08.201Z,17.58
2022-08-23T06:04:37.163Z,17.48
2022-08-23T06:07:07.054Z,22.13
2022-08-23T06:09:35.431Z,20.63
2022-08-23T06:12:03.879Z,18.92
2022-08-23T06:14:32.348Z,20.33
2022-08-23T06:17:01.027Z,23.27
2022-08-23T06:19:29.565Z,15.82
2022-08-23T06:21:57.997Z,20.75
2022-08-23T06:24:27.913Z,15.93
2022-08-23T06:26:56.333Z,16.45
2022-08-23T06:29:24.796Z,14.60
2022-08-23T06:31:53.715Z,15.68
2022-08-23T06:34:24.385Z,11.52
2022-08-23T06:36:55.202Z,14.55
2022-08-23T06:39:25.276Z,15.23
2022-08-23T06:41:58.045Z,11.55
2022-08-23T06:44:27.385Z,8.88
2022-08-23T06:46:57.408Z,9.10
2022-08-23T06:49:27.711Z,9.95
2022-08-23T06:51:59.936Z,7.18
2022-08-23T06:54:30.008Z,6.95
2022-08-23T06:57:00.368Z,7.88
2022-08-23T06:59:29.192Z,9.32
2022-08-23T07:01:59.804Z,7.35
2022-08-23T07:04:30.480Z,7.32
2022-08-23T07:06:59.903Z,7.43
2022-08-23T07:09:28.337Z,5.95
2022-08-23T07:11:57.053Z,6.65
2022-08-23T07:14:26.918Z,6.75
2022-08-23T07:16:57.236Z,5.18
2022-08-23T07:19:29.162Z,5.65
2022-08-23T07:21:58.118Z,5.72
2022-08-23T07:24:32.302Z,7.07
2022-08-23T07:27:06.410Z,6.25
2022-08-23T07:29:37.881Z,6.43
2022-08-23T07:32:06.593Z,9.13
2022-08-23T07:34:35.240Z,6.78
2022-08-23T07:37:04.433Z,5.78
2022-08-23T07:39:41.136Z,6.75
2022-08-23T07:42:22.997Z,6.13
2022-08-23T07:44:54.319Z,5.95
2022-08-23T07:47:22.750Z,5.82
2022-08-23T07:49:51.197Z,5.18
2022-08-23T07:52:19.633Z,8.95
2022-08-23T07:54:49.449Z,6.10
2022-08-23T07:57:18.164Z,7.57
2022-08-23T07:59:48.587Z,6.78
2022-08-23T08:02:18.294Z,7.22
2022-08-23T08:04:47.085Z,6.70
2022-08-23T08:07:20.818Z,5.72
2022-08-23T08:09:49.609Z,5.93
2022-08-23T08:12:18.034Z,5.57
2022-08-23T08:14:48.267Z,7.05
2022-08-23T08:17:19.123Z,6.30
2022-08-23T08:19:48.360Z,7.72
2022-08-23T08:22:16.771Z,6.03
2022-08-23T08:24:45.523Z,7.13
2022-08-23T08:27:13.971Z,7.03
2022-08-23T08:29:43.906Z,8.13
2022-08-23T08:32:14.151Z,5.78
2022-08-23T08:34:44.281Z,6.63
2022-08-23T08:37:12.780Z,4.28
2022-08-23T08:39:45.675Z,3.60
2022-08-23T08:42:31.859Z,3.22
2022-08-23T08:45:03.965Z,2.95
2022-08-23T08:47:39.453Z,4.28
2022-08-23T08:50:19.212Z,3.40
2022-08-23T08:52:52.105Z,2.83
2022-08-23T08:55:24.480Z,3.28
2022-08-23T08:57:55.112Z,4.13
2022-08-23T09:00:25.323Z,3.25
2022-08-23T09:02:55.814Z,3.42
2022-08-23T09:05:29.073Z,3.17
2022-08-23T09:08:10.136Z,2.75
2022-08-23T09:10:58.219Z,2.97
2022-08-23T09:14:12.809Z,3.38
2022-08-23T09:16:51.624Z,4.68
2022-08-23T09:19:21.522Z,1.83
2022-08-23T09:21:58.129Z,2.78
2022-08-23T09:24:27.598Z,3.08
2022-08-23T09:26:56.316Z,1.67
2022-08-23T09:29:26.802Z,3.35
2022-08-23T09:31:58.437Z,3.35
2022-08-23T09:34:42.379Z,2.17
2022-08-23T09:37:19.327Z,3.15
2022-08-23T09:39:52.449Z,1.75
2022-08-23T09:42:32.849Z,2.85
2022-08-23T09:45:02.011Z,3.97
2022-08-23T09:47:37.813Z,5.13
2022-08-23T09:50:24.189Z,3.55
2022-08-23T09:52:57.397Z,3.67
2022-08-23T09:55:33.010Z,5.32
2022-08-23T09:58:02.845Z,6.63
2022-08-23T10:00:34.923Z,6.72
2022-08-23T10:03:25.037Z,4.78
2022-08-23T10:05:55.595Z,7.85
2022-08-23T10:08:28.552Z,7.90
2022-08-23T10:10:59.955Z,5.55
2022-08-23T10:13:28.892Z,11.85
2022-08-23T10:16:08.619Z,6.32
2022-08-23T10:18:52.325Z,6.82
2022-08-23T10:21:24.730Z,4.60
2022-08-23T10:24:22.626Z,3.35
2022-08-23T10:27:28.218Z,4.07
2022-08-23T10:30:03.086Z,3.78
2022-08-23T10:32:55.883Z,6.45
2022-08-23T10:35:40.091Z,5.75
2022-08-23T10:38:35.689Z,5.20
2022-08-23T10:41:18.592Z,5.25
2022-08-23T10:43:55.514Z,6.07
2022-08-23T10:46:24.283Z,5.38
2022-08-23T10:48:55.987Z,3.70
2022-08-23T10:51:31.904Z,4.60
2022-08-23T10:54:06.189Z,2.10
2022-08-23T10:56:42.997Z,3.67
2022-08-23T10:59:21.379Z,2.17
2022-08-23T11:01:58.033Z,4.32
2022-08-23T11:04:35.227Z,2.05
2022-08-23T11:07:15.544Z,4.18
2022-08-23T11:09:58.281Z,7.85
2022-08-23T11:12:30.441Z,4.68
2022-08-23T11:15:20.579Z,3.72
2022-08-23T11:17:59.641Z,3.75
2022-08-23T11:21:09.682Z,4.00
2022-08-23T11:23:42.565Z,5.97
2022-08-23T11:26:12.751Z,3.78
2022-08-23T11:28:44.949Z,4.32
2022-08-23T11:31:24.414Z,3.17
2022-08-23T11:34:02.533Z,4.40
2022-08-23T11:36:33.240Z,4.28
2022-08-23T11:39:07.895Z,4.95
2022-08-23T11:41:37.535Z,6.22
2022-08-23T11:44:29.034Z,3.75
2022-08-23T11:47:03.579Z,3.80
2022-08-23T11:49:53.669Z,2.88
2022-08-23T11:52:36.074Z,4.15
2022-08-23T11:55:24.774Z,3.22
2022-08-23T11:58:12.240Z,2.25
2022-08-23T12:01:06.254Z,5.63
2022-08-23T12:03:44.493Z,4.60
2022-08-23T12:06:31.613Z,6.32
2022-08-23T12:09:04.780Z,2.95
2022-08-23T12:12:06.710Z,2.65
2022-08-23T12:14:37.443Z,3.95
2022-08-23T12:17:46.432Z,6.05
2022-08-23T12:20:29.326Z,3.58
2022-08-23T12:23:07.763Z,5.20
2022-08-23T12:25:36.586Z,4.15
2022-08-23T12:28:29.865Z,3.30
2022-08-23T12:31:08.088Z,2.33
2022-08-23T12:33:53.441Z,5.10
2022-08-23T12:36:30.080Z,2.97
2022-08-23T12:39:04.552Z,3.58
2022-08-23T12:41:36.319Z,2.50
2022-08-23T12:44:08.761Z,6.28
2022-08-23T12:46:40.479Z,3.17
2022-08-23T12:49:23.174Z,3.25
2022-08-23T12:51:53.368Z,2.90
2022-08-23T12:54:24.329Z,6.30
2022-08-23T12:56:54.970Z,2.90
2022-08-23T12:59:36.603Z,2.13
2022-08-23T13:02:07.754Z,1.50
2022-08-23T13:04:43.226Z,2.95
2022-08-23T13:07:19.725Z,2.00
2022-08-23T13:09:53.526Z,4.03
2022-08-23T13:12:24.304Z,3.03
2022-08-23T13:14:54.952Z,9.82
2022-08-23T13:17:36.780Z,2.63
2022-08-23T13:20:30.152Z,3.33
2022-08-23T13:23:03.979Z,4.25
2022-08-23T13:25:35.409Z,1.52
2022-08-23T13:28:06.199Z,3.00
2022-08-23T13:30:36.521Z,1.65
2022-08-23T13:33:22.859Z,2.55
2022-08-23T13:35:54.377Z,4.07
2022-08-23T13:38:25.858Z,5.00
2022-08-23T13:41:00.634Z,4.53
2022-08-23T13:43:33.657Z,2.90
2022-08-23T13:46:12.769Z,2.85
2022-08-23T13:48:48.652Z,3.15
2022-08-23T13:51:31.073Z,6.38
2022-08-23T13:54:01.000Z,5.85
2022-08-23T13:56:30.433Z,3.92
2022-08-23T13:59:02.487Z,5.85
2022-08-23T14:01:30.936Z,4.05
2022-08-23T14:03:59.567Z,6.70
2022-08-23T14:06:29.229Z,3.28
2022-08-23T14:08:57.644Z,5.57
2022-08-23T14:11:26.055Z,4.18
2022-08-23T14:13:54.389Z,2.17
2022-08-23T14:16:34.425Z,4.47
2022-08-23T14:20:31.495Z,2.75
2022-08-23T14:21:53.797Z,6.95
2022-08-23T14:24:22.712Z,3.88
2022-08-23T14:26:52.459Z,4.60
2022-08-23T14:29:22.276Z,3.47
2022-08-23T14:31:51.394Z,2.97
2022-08-23T14:34:19.913Z,2.53
2022-08-23T14:39:38.222Z,4.20
2022-08-23T14:42:07.620Z,2.55
2022-08-23T14:44:36.627Z,3.40
2022-08-23T14:47:05.751Z,3.45
2022-08-23T14:49:34.283Z,2.13
2022-08-23T14:52:03.114Z,4.00
2022-08-23T14:54:32.009Z,2.97
2022-08-23T14:57:01.563Z,4.75
2022-08-23T14:59:29.996Z,3.55
2022-08-23T15:01:58.845Z,4.97
2022-08-23T15:04:34.594Z,4.68
2022-08-23T15:07:19.617Z,4.22
2022-08-23T15:09:48.585Z,3.78
2022-08-23T15:15:09.184Z,2.40
2022-08-23T15:17:48.028Z,3.45
2022-08-23T15:20:16.505Z,2.35
2022-08-23T15:22:55.143Z,3.47
2022-08-23T15:25:35.678Z,1.58
2022-08-23T15:28:09.658Z,1.85
2022-08-23T15:30:41.598Z,2.22
2022-08-23T15:33:10.171Z,4.22
2022-08-23T15:35:42.486Z,2.28
2022-08-23T15:38:11.766Z,2.45
2022-08-23T15:40:40.451Z,1.73
2022-08-23T15:43:10.440Z,2.47
2022-08-23T15:45:39.309Z,2.90
2022-08-23T15:48:23.824Z,2.72
2022-08-23T15:50:52.876Z,4.88
2022-08-23T15:53:22.448Z,2.30
2022-08-23T15:55:51.401Z,1.83
2022-08-23T15:58:23.994Z,2.95
2022-08-23T16:00:53.340Z,1.15
2022-08-23T16:03:23.497Z,0.95
2022-08-23T16:05:53.743Z,1.98
2022-08-23T16:08:25.838Z,3.15
2022-08-23T16:10:54.936Z,2.45
2022-08-23T16:13:25.371Z,4.55
2022-08-23T16:15:54.022Z,2.50
2022-08-23T16:18:22.413Z,1.98
2022-08-23T16:20:54.166Z,2.40
2022-08-23T16:23:23.658Z,2.33
2022-08-23T16:25:52.282Z,3.78
2022-08-23T16:28:23.897Z,2.50
2022-08-23T16:30:53.574Z,2.05
2022-08-23T16:33:22.014Z,5.10
2022-08-23T16:35:50.593Z,1.33
2022-08-23T16:38:19.074Z,2.60
2022-08-23T16:40:47.502Z,2.65
2022-08-23T16:43:16.291Z,2.60
2022-08-23T16:45:44.781Z,3.28
2022-08-23T16:48:14.936Z,4.80
2022-08-23T16:50:43.864Z,2.35
2022-08-23T16:53:12.337Z,4.15
2022-08-23T16:55:41.095Z,3.47
2022-08-23T16:58:09.562Z,3.88
2022-08-23T17:00:38.691Z,3.42
2022-08-23T17:03:07.720Z,3.03
2022-08-23T17:05:38.567Z,0.90
2022-08-23T17:08:07.470Z,7.28
2022-08-23T17:10:35.981Z,2.78
2022-08-23T17:13:05.263Z,3.33
2022-08-23T17:15:36.602Z,3.60
2022-08-23T17:18:06.069Z,4.28
2022-08-23T17:20:37.983Z,4.07
2022-08-23T17:23:06.919Z,6.10
2022-08-23T17:25:36.025Z,3.88
2022-08-23T17:28:05.066Z,5.55
2022-08-23T17:30:34.393Z,3.40
2022-08-23T17:33:02.876Z,2.13
2022-08-23T17:35:33.703Z,3.72
2022-08-23T17:38:05.946Z,4.15
2022-08-23T17:40:38.532Z,4.68
2022-08-23T17:43:07.695Z,2.53
2022-08-23T17:45:41.551Z,4.82
2022-08-23T17:48:10.946Z,5.57
2022-08-23T17:50:39.454Z,3.97
2022-08-23T17:53:09.551Z,4.32
2022-08-23T17:55:38.564Z,3.67
2022-08-23T17:58:07.665Z,5.90
2022-08-23T18:00:38.361Z,4.85
2022-08-23T18:03:07.494Z,4.05
2022-08-23T18:05:37.733Z,2.65
2022-08-23T18:08:06.461Z,8.55
2022-08-23T18:10:36.593Z,5.13
2022-08-23T18:13:05.335Z,5.15
2022-08-23T18:15:33.835Z,5.07
2022-08-23T18:18:02.464Z,3.47
2022-08-23T18:20:31.204Z,4.63
2022-08-23T18:23:00.589Z,7.25
2022-08-23T18:25:29.889Z,4.90
2022-08-23T18:28:08.296Z,4.80
2022-08-23T18:30:38.002Z,3.22
2022-08-23T18:33:07.415Z,5.22
2022-08-23T18:35:41.607Z,2.80
2022-08-23T18:38:12.021Z,5.18
2022-08-23T18:40:46.154Z,3.20
2022-08-23T18:43:17.911Z,4.07
2022-08-23T18:45:47.186Z,6.82
2022-08-23T18:48:15.622Z,6.60
2022-08-23T18:50:44.535Z,4.53
2022-08-23T18:53:14.049Z,2.42
2022-08-23T18:55:43.252Z,3.92
2022-08-23T18:58:11.913Z,7.50
2022-08-23T19:00:42.978Z,2.28
2022-08-23T19:03:12.357Z,3.35
2022-08-23T19:05:42.263Z,4.28
2022-08-23T19:08:12.388Z,6.40
2022-08-23T19:10:42.421Z,6.10
2022-08-23T19:13:11.209Z,3.75
2022-08-23T19:15:42.192Z,4.43
2022-08-23T19:18:11.012Z,3.03
2022-08-23T19:20:39.810Z,4.63
2022-08-23T19:23:08.273Z,8.20
2022-08-23T19:25:38.616Z,6.63
2022-08-23T19:28:07.117Z,6.55
2022-08-23T19:30:35.650Z,4.72
2022-08-23T19:33:05.759Z,4.72
2022-08-23T19:35:34.828Z,7.47
2022-08-23T19:38:03.092Z,5.03
2022-08-23T19:40:31.798Z,8.60
2022-08-23T19:43:00.463Z,9.20
2022-08-23T19:45:29.454Z,4.80
2022-08-23T19:48:00.781Z,10.23
2022-08-23T19:50:30.614Z,7.53
2022-08-23T19:52:59.134Z,7.68
2022-08-23T19:55:27.539Z,8.40
2022-08-23T19:57:56.690Z,5.03
2022-08-23T20:00:26.258Z,10.25
2022-08-23T20:02:55.520Z,6.30
2022-08-23T20:05:24.042Z,7.13
2022-08-23T20:07:53.760Z,6.45
2022-08-23T20:10:22.449Z,6.90
2022-08-23T20:12:50.818Z,6.05
2022-08-23T20:15:19.446Z,3.17
2022-08-23T20:17:47.831Z,7.30
2022-08-23T20:20:16.201Z,7.43
2022-08-23T20:23:02.464Z,8.30
2022-08-23T20:25:32.309Z,7.57
2022-08-23T20:28:04.979Z,4.57
2022-08-23T20:30:33.477Z,4.97
2022-08-23T20:33:02.205Z,10.50
2022-08-23T20:35:30.757Z,7.63
2022-08-23T20:37:59.192Z,6.78
2022-08-23T20:40:27.639Z,8.00
2022-08-23T20:42:57.465Z,5.95
2022-08-23T20:45:25.824Z,5.63
2022-08-23T20:47:54.278Z,6.38
2022-08-23T20:50:22.499Z,7.82
2022-08-23T20:52:50.903Z,5.50
2022-08-23T20:55:19.343Z,11.52
2022-08-23T20:57:47.867Z,7.68
2022-08-23T21:00:18.192Z,7.47
2022-08-23T21:02:46.918Z,7.85
2022-08-23T21:05:15.110Z,9.80
2022-08-23T21:07:43.588Z,10.93
2022-08-23T21:10:12.582Z,14.57
2022-08-23T21:12:41.070Z,10.68
2022-08-23T21:15:11.130Z,11.27
2022-08-23T21:17:40.824Z,8.68
2022-08-23T21:20:09.758Z,9.75
2022-08-23T21:22:38.616Z,8.98
2022-08-23T21:25:07.678Z,13.13
2022-08-23T21:27:36.362Z,12.55
2022-08-23T21:30:05.028Z,11.48
2022-08-23T21:32:33.557Z,11.65
2022-08-23T21:35:03.564Z,14.55
2022-08-23T21:37:32.230Z,11.55
2022-08-23T21:40:00.642Z,12.15
2022-08-23T21:42:30.613Z,12.25
2022-08-23T21:44:58.954Z,12.75
2022-08-23T21:47:28.130Z,10.90
2022-08-23T21:49:56.485Z,10.20
2022-08-23T21:52:26.113Z,11.35
2022-08-23T21:54:54.616Z,11.77
2022-08-23T21:57:22.943Z,12.40
2022-08-23T21:59:51.395Z,11.23
2022-08-23T22:02:20.551Z,12.52
2022-08-23T22:04:49.051Z,8.88
2022-08-23T22:07:17.402Z,9.80
2022-08-23T22:09:47.291Z,10.63
2022-08-23T22:12:15.748Z,8.38
2022-08-23T22:14:44.658Z,7.28
2022-08-23T22:17:16.325Z,8.02
2022-08-23T22:19:44.929Z,8.82
2022-08-23T22:22:13.560Z,7.55
2022-08-23T22:24:42.758Z,7.60
2022-08-23T22:27:13.262Z,7.38
2022-08-23T22:29:41.776Z,9.52
2022-08-23T22:32:14.984Z,9.10
2022-08-23T22:34:43.380Z,6.63
2022-08-23T22:37:11.952Z,6.60
2022-08-23T22:39:40.243Z,5.18
2022-08-23T22:42:09.403Z,7.30
2022-08-23T22:44:40.089Z,4.28
2022-08-23T22:47:08.547Z,3.58
2022-08-23T22:49:37.012Z,5.68
2022-08-23T22:52:05.962Z,6.38
2022-08-23T22:54:34.522Z,3.65
2022-08-23T22:57:02.945Z,4.75
2022-08-23T22:59:32.870Z,3.95
2022-08-23T23:02:04.167Z,3.13
2022-08-23T23:04:34.090Z,5.78
2022-08-23T23:07:02.618Z,4.47
2022-08-23T23:09:31.595Z,3.78
2022-08-23T23:12:00.010Z,5.43
2022-08-23T23:14:28.504Z,6.90
2022-08-23T23:16:56.994Z,4.40
2022-08-23T23:19:45.753Z,5.78
2022-08-23T23:22:14.786Z,3.92
2022-08-23T23:24:43.578Z,5.45
2022-08-23T23:27:11.859Z,4.95
2022-08-23T23:29:40.066Z,3.95
2022-08-23T23:32:08.521Z,4.93
2022-08-23T23:34:38.132Z,4.07
2022-08-23T23:37:06.854Z,3.90
2022-08-23T23:39:35.457Z,4.05
2022-08-23T23:42:03.839Z,4.40
2022-08-23T23:44:32.468Z,4.28
2022-08-23T23:47:01.968Z,5.90
2022-08-23T23:49:33.041Z,3.95
2022-08-23T23:52:04.818Z,3.75
2022-08-23T23:54:38.373Z,3.67
2022-08-23T23:57:07.474Z,6.25
2022-08-23T23:59:36.407Z,4.60
